Time;durP1;ratioP1;P1;durP2;ratioP2;P2;SDS_P1;SDS_P2;PMS_P1;PMS_P2;Temp;Humidity;BMP_temperature;BMP_pressure;BME280_temperature;BME280_humidity;BME280_pressure;Samples;Min_cycle;Max_cycle;Signal;HPM_P1;HPM_P2
2021/04/24 00:00:24;;;;;;;;;;;;;;;3.79;100.00;100154.53;5052228;28;19947;-77
2021/04/24 00:02:52;;;;;;;;;;;;;;;3.72;100.00;100167.00;5053436;28;20372;-77
2021/04/24 00:05:18;;;;;;;;;;;;;;;3.63;100.00;100157.22;5053345;28;19924;-77
2021/04/24 00:07:49;;;;;;;;;;;;;;;3.69;100.00;100153.06;5053177;28;20483;-77
2021/04/24 00:10:16;;;;;;;;;;;;;;;3.34;100.00;100165.84;5083547;28;19974;-77
2021/04/24 00:12:43;;;;;;;;;;;;;;;3.46;100.00;100149.22;5052451;28;19954;-77
2021/04/24 00:15:11;;;;;;;;;;;;;;;3.36;100.00;100150.50;5051344;28;19925;-77
2021/04/24 00:17:38;;;;;;;;;;;;;;;3.29;100.00;100153.06;5052852;28;19924;-77
2021/04/24 00:20:06;;;;;;;;;;;;;;;3.33;100.00;100155.94;5053156;28;20340;-77
2021/04/24 00:22:33;;;;;;;;;;;;;;;3.20;100.00;100149.63;5052923;28;19933;-77
2021/04/24 00:25:00;;;;;;;;;;;;;;;3.17;100.00;100149.53;5051831;28;19955;-77
2021/04/24 00:27:27;;;;;;;;;;;;;;;3.11;100.00;100145.41;5053102;28;19935;-77
2021/04/24 00:29:54;;;;;;;;;;;;;;;3.07;100.00;100144.50;5075907;28;20453;-77
2021/04/24 00:32:21;;;;;;;;;;;;;;;3.00;100.00;100149.81;5048744;28;19925;-77
2021/04/24 00:34:47;;;;;;;;;;;;;;;3.16;100.00;100153.44;5053085;28;19929;-77
2021/04/24 00:37:14;;;;;;;;;;;;;;;3.01;100.00;100151.41;5052979;28;19924;-77
2021/04/24 00:39:41;;;;;;;;;;;;;;;3.18;100.00;100156.69;5052901;28;19979;-77
2021/04/24 00:42:07;;;;;;;;;;;;;;;3.05;100.00;100155.06;5052879;28;19931;-77
2021/04/24 00:44:35;;;;;;;;;;;;;;;3.15;100.00;100154.63;5053113;28;19925;-77
2021/04/24 00:47:02;;;;;;;;;;;;;;;3.17;100.00;100155.88;5052864;28;19925;-77
2021/04/24 00:49:29;;;;;;;;;;;;;;;3.01;100.00;100149.47;5053005;28;20012;-77
2021/04/24 00:51:56;;;;;;;;;;;;;;;3.06;100.00;100151.19;5052603;28;19925;-77
2021/04/24 00:54:22;;;;;;;;;;;;;;;2.99;100.00;100150.94;5054152;28;19932;-77
2021/04/24 00:56:50;;;;;;;;;;;;;;;3.17;100.00;100149.53;5056922;28;19991;-77
2021/04/24 00:59:16;;;;;;;;;;;;;;;2.79;100.00;100143.59;5056860;28;19925;-77
2021/04/24 01:01:43;;;;;;;;;;;;;;;2.94;100.00;100145.69;5056903;28;19929;-77
2021/04/24 01:04:10;;;;;;;;;;;;;;;2.95;100.00;100141.75;5056537;28;19967;-77
2021/04/24 01:06:36;;;;;;;;;;;;;;;3.00;100.00;100144.28;5088897;28;19925;-77
2021/04/24 01:09:05;;;;;;;;;;;;;;;2.93;100.00;100135.75;5088985;28;20363;-77
2021/04/24 01:11:31;;;;;;;;;;;;;;;2.92;100.00;100147.97;5089085;28;19925;-77
2021/04/24 01:13:58;;;;;;;;;;;;;;;3.00;100.00;100142.31;5056522;28;19960;-77
2021/04/24 01:16:25;;;;;;;;;;;;;;;2.96;100.00;100143.34;5056276;28;19925;-77
2021/04/24 01:18:51;;;;;;;;;;;;;;;2.89;100.00;100143.13;5056618;28;19925;-77
2021/04/24 01:21:21;;;;;;;;;;;;;;;2.87;100.00;100134.38;5056102;28;19924;-77
2021/04/24 01:23:48;;;;;;;;;;;;;;;3.01;100.00;100140.34;5056523;28;20404;-76
2021/04/24 01:26:15;;;;;;;;;;;;;;;2.95;100.00;100136.22;5056278;28;19924;-76
2021/04/24 01:28:42;;;;;;;;;;;;;;;2.88;100.00;100136.81;5056478;28;19925;-76
2021/04/24 01:31:08;;;;;;;;;;;;;;;2.61;100.00;100139.47;5056012;28;19932;-76
2021/04/24 01:33:35;;;;;;;;;;;;;;;2.72;100.00;100138.66;5038337;28;19928;-76
2021/04/24 01:36:01;;;;;;;;;;;;;;;2.48;100.00;100138.66;5055867;28;19962;-76
2021/04/24 01:38:28;;;;;;;;;;;;;;;2.52;100.00;100134.06;5054957;28;19947;-76
2021/04/24 01:40:55;;;;;;;;;;;;;;;2.64;100.00;100141.53;5056254;28;19925;-76
2021/04/24 01:43:21;;;;;;;;;;;;;;;2.57;100.00;100133.03;5055855;28;19967;-76
2021/04/24 01:45:48;;;;;;;;;;;;;;;2.45;100.00;100139.34;5054743;28;19931;-76
2021/04/24 01:48:14;;;;;;;;;;;;;;;2.47;100.00;100133.50;5054789;28;19995;-76
2021/04/24 01:50:42;;;;;;;;;;;;;;;2.56;100.00;100126.69;5055752;28;19925;-76
2021/04/24 01:53:12;;;;;;;;;;;;;;;2.39;100.00;100129.69;5055976;28;19979;-76
2021/04/24 01:55:39;;;;;;;;;;;;;;;2.40;100.00;100125.78;5055903;28;19975;-76
2021/04/24 01:58:07;;;;;;;;;;;;;;;2.37;100.00;100120.16;5055751;28;19933;-76
2021/04/24 02:00:37;;;;;;;;;;;;;;;2.39;100.00;100129.69;5055662;28;19931;-76
2021/04/24 02:03:06;;;;;;;;;;;;;;;2.39;100.00;100120.63;5087985;28;19928;-76
2021/04/24 02:05:33;;;;;;;;;;;;;;;2.28;100.00;100117.50;5086954;28;19924;-76
2021/04/24 02:08:06;;;;;;;;;;;;;;;2.06;100.00;100126.19;5055728;28;19925;-77
2021/04/24 02:10:33;;;;;;;;;;;;;;;2.06;100.00;100117.91;5054336;28;19932;-76
2021/04/24 02:13:01;;;;;;;;;;;;;;;2.15;100.00;100124.13;5054332;28;20012;-76
2021/04/24 02:15:27;;;;;;;;;;;;;;;2.32;100.00;100123.16;5055498;28;19924;-76
2021/04/24 02:17:54;;;;;;;;;;;;;;;2.24;100.00;100132.31;5055492;28;19925;-76
2021/04/24 02:20:21;;;;;;;;;;;;;;;2.24;100.00;100129.56;5055295;28;19925;-76
2021/04/24 02:22:48;;;;;;;;;;;;;;;2.22;100.00;100127.16;5041501;28;19924;-76
2021/04/24 02:25:16;;;;;;;;;;;;;;;2.13;100.00;100125.63;5055451;28;19929;-76
2021/04/24 02:27:42;;;;;;;;;;;;;;;2.16;100.00;100135.97;5055086;28;19935;-76
2021/04/24 02:30:10;;;;;;;;;;;;;;;2.21;100.00;100133.81;5055291;28;19931;-76
2021/04/24 02:32:38;;;;;;;;;;;;;;;2.26;100.00;100141.06;5054842;28;19932;-76
2021/04/24 02:35:06;;;;;;;;;;;;;;;2.27;100.00;100139.91;5054951;28;20006;-76
2021/04/24 02:37:33;;;;;;;;;;;;;;;2.19;100.00;100141.63;5055226;28;20364;-76
2021/04/24 02:40:00;;;;;;;;;;;;;;;2.13;100.00;100136.66;5055051;28;19957;-76
2021/04/24 02:42:28;;;;;;;;;;;;;;;1.94;100.00;100139.16;5053836;28;20011;-76
2021/04/24 02:44:56;;;;;;;;;;;;;;;1.84;100.00;100148.66;5055024;28;20023;-76
2021/04/24 02:47:23;;;;;;;;;;;;;;;1.92;100.00;100141.44;5054778;28;19970;-76
2021/04/24 02:49:50;;;;;;;;;;;;;;;1.91;100.00;100139.84;5053640;28;19931;-76
2021/04/24 02:52:17;;;;;;;;;;;;;;;1.91;100.00;100142.59;5054897;28;20006;-76
2021/04/24 02:54:44;;;;;;;;;;;;;;;1.87;100.00;100145.22;5053693;28;19935;-76
2021/04/24 02:57:10;;;;;;;;;;;;;;;1.86;100.00;100152.66;5054477;28;19925;-76
2021/04/24 02:59:37;;;;;;;;;;;;;;;1.96;100.00;100153.38;5054650;28;19928;-76
2021/04/24 03:02:04;;;;;;;;;;;;;;;1.83;100.00;100145.09;5086672;28;19928;-76
2021/04/24 03:04:30;;;;;;;;;;;;;;;1.83;100.00;100142.31;5054554;28;20360;-76
2021/04/24 03:06:57;;;;;;;;;;;;;;;1.83;100.00;100141.53;5054477;28;19925;-76
2021/04/24 03:09:24;;;;;;;;;;;;;;;1.71;100.00;100138.75;5054571;28;19951;-76
2021/04/24 03:11:50;;;;;;;;;;;;;;;1.73;100.00;100140.00;5052751;28;20249;-76
2021/04/24 03:14:17;;;;;;;;;;;;;;;1.75;100.00;100143.25;5058156;28;19925;-76
2021/04/24 03:16:44;;;;;;;;;;;;;;;1.82;100.00;100143.47;5053548;28;19924;-76
2021/04/24 03:19:11;;;;;;;;;;;;;;;1.80;100.00;100142.22;5052817;28;19925;-76
2021/04/24 03:21:38;;;;;;;;;;;;;;;1.85;100.00;100130.97;5054086;28;19979;-76
2021/04/24 03:24:05;;;;;;;;;;;;;;;1.63;100.00;100139.63;5076896;28;19987;-76
2021/04/24 03:26:32;;;;;;;;;;;;;;;1.47;100.00;100149.66;5053818;28;19929;-76
2021/04/24 03:28:59;;;;;;;;;;;;;;;1.64;100.00;100153.06;5053987;28;19932;-76
2021/04/24 03:31:26;;;;;;;;;;;;;;;1.28;100.00;100144.63;5052305;28;19936;-76
2021/04/24 03:33:53;;;;;;;;;;;;;;;1.25;100.00;100142.56;5053832;28;19932;-76
2021/04/24 03:36:20;;;;;;;;;;;;;;;1.22;100.00;100150.66;5052428;28;19924;-76
2021/04/24 03:38:47;;;;;;;;;;;;;;;1.28;100.00;100150.16;5052707;28;20522;-76
2021/04/24 03:41:13;;;;;;;;;;;;;;;1.34;100.00;100151.56;5053823;28;19933;-76
2021/04/24 03:43:40;;;;;;;;;;;;;;;1.31;100.00;100149.47;5053626;28;19998;-76
2021/04/24 03:46:07;;;;;;;;;;;;;;;1.48;100.00;100154.03;5052546;28;19924;-76
2021/04/24 03:48:33;;;;;;;;;;;;;;;1.40;100.00;100152.13;5053551;28;19961;-76
2021/04/24 03:51:00;;;;;;;;;;;;;;;1.31;100.00;100149.47;5053729;28;19929;-76
2021/04/24 03:53:52;;;;;;;;;;;;;;;1.36;100.00;100146.50;5052269;28;20249;-76
2021/04/24 03:56:19;;;;;;;;;;;;;;;1.33;100.00;100152.66;5085983;28;19925;-76
2021/04/24 03:58:45;;;;;;;;;;;;;;;1.23;100.00;100163.28;5053566;28;19933;-76
2021/04/24 04:01:12;;;;;;;;;;;;;;;1.26;100.00;100157.91;5053446;28;19932;-76
2021/04/24 04:03:39;;;;;;;;;;;;;;;1.24;100.00;100148.41;5053398;28;19932;-76
2021/04/24 04:06:06;;;;;;;;;;;;;;;1.22;100.00;100157.00;5053347;28;19935;-76
2021/04/24 04:08:32;;;;;;;;;;;;;;;1.16;100.00;100155.59;5053006;28;20018;-76
2021/04/24 04:10:59;;;;;;;;;;;;;;;1.30;100.00;100155.31;5035740;28;19924;-76
2021/04/24 04:13:26;;;;;;;;;;;;;;;1.29;100.00;100148.16;5053439;28;19928;-76
2021/04/24 04:15:53;;;;;;;;;;;;;;;1.08;100.00;100145.44;5053058;28;19936;-76
2021/04/24 04:18:20;;;;;;;;;;;;;;;1.00;100.00;100149.03;5052960;28;19925;-76
2021/04/24 04:20:48;;;;;;;;;;;;;;;1.02;100.00;100154.22;5052813;28;19924;-75
2021/04/24 04:23:15;;;;;;;;;;;;;;;0.86;100.00;100154.00;5052983;28;19929;-76
2021/04/24 04:25:43;;;;;;;;;;;;;;;0.72;100.00;100156.19;5053127;28;19925;-76
2021/04/24 04:28:10;;;;;;;;;;;;;;;0.83;100.00;100154.69;5052029;28;19924;-76
2021/04/24 04:30:37;;;;;;;;;;;;;;;0.84;100.00;100155.47;5051596;28;19928;-76
2021/04/24 04:33:05;;;;;;;;;;;;;;;0.99;100.00;100158.44;5052497;28;19936;-76
2021/04/24 04:35:32;;;;;;;;;;;;;;;0.95;100.00;100160.28;5053199;28;19924;-76
2021/04/24 04:37:59;;;;;;;;;;;;;;;0.94;100.00;100155.09;5052766;28;19924;-76
2021/04/24 04:40:26;;;;;;;;;;;;;;;0.99;100.00;100157.63;5052759;28;19925;-76
2021/04/24 04:42:53;;;;;;;;;;;;;;;0.99;100.00;100158.44;5051702;28;19932;-76
2021/04/24 04:45:20;;;;;;;;;;;;;;;1.01;100.00;100161.69;5052775;28;19925;-76
2021/04/24 04:47:48;;;;;;;;;;;;;;;0.88;100.00;100162.72;5084991;28;19928;-76
2021/04/24 04:50:19;;;;;;;;;;;;;;;0.89;100.00;100164.34;5052823;28;19929;-76
2021/04/24 04:52:46;;;;;;;;;;;;;;;1.07;100.00;100170.53;5052757;28;19931;-76
2021/04/24 04:55:13;;;;;;;;;;;;;;;0.90;100.00;100165.97;5052588;28;19928;-76
2021/04/24 04:57:40;;;;;;;;;;;;;;;0.92;100.00;100163.69;5052788;28;19929;-76
2021/04/24 05:00:08;;;;;;;;;;;;;;;0.95;100.00;100170.47;5052364;28;19944;-76
2021/04/24 05:02:34;;;;;;;;;;;;;;;0.97;100.00;100179.19;5052930;28;19925;-76
2021/04/24 05:05:01;;;;;;;;;;;;;;;0.88;100.00;100179.22;5052652;28;19928;-76
2021/04/24 05:07:27;;;;;;;;;;;;;;;0.90;100.00;100171.47;5052519;28;19925;-76
2021/04/24 05:10:01;;;;;;;;;;;;;;;1.08;100.00;100178.47;5052848;28;19936;-76
2021/04/24 05:12:27;;;;;;;;;;;;;;;1.10;100.00;100178.94;5051459;28;19932;-76
2021/04/24 05:14:54;;;;;;;;;;;;;;;1.00;100.00;100181.28;5052688;28;19933;-76
2021/04/24 05:17:21;;;;;;;;;;;;;;;1.06;100.00;100177.97;5052511;28;19925;-76
2021/04/24 05:19:47;;;;;;;;;;;;;;;1.12;100.00;100178.59;5052665;28;19925;-76
2021/04/24 05:22:14;;;;;;;;;;;;;;;1.19;100.00;100178.88;5052272;28;19929;-76
2021/04/24 05:24:41;;;;;;;;;;;;;;;1.27;100.00;100186.28;5052733;28;20017;-76
2021/04/24 05:27:07;;;;;;;;;;;;;;;1.33;100.00;100182.97;5052273;28;19924;-76
2021/04/24 05:29:34;;;;;;;;;;;;;;;1.29;100.00;100190.28;5052834;28;19933;-76
2021/04/24 05:32:02;;;;;;;;;;;;;;;1.38;100.00;100192.97;5052608;28;20029;-76
2021/04/24 05:34:29;;;;;;;;;;;;;;;1.32;100.00;100184.13;5051173;28;19925;-77
2021/04/24 05:36:56;;;;;;;;;;;;;;;1.39;100.00;100184.38;5052314;28;19929;-76
2021/04/24 05:39:23;;;;;;;;;;;;;;;1.51;100.00;100192.72;5052439;28;20376;-76
2021/04/24 05:41:51;;;;;;;;;;;;;;;1.63;100.00;100190.03;5054018;28;19924;-76
2021/04/24 05:44:19;;;;;;;;;;;;;;;1.76;100.00;100188.13;5056079;28;19924;-76
2021/04/24 05:46:46;;;;;;;;;;;;;;;1.59;100.00;100194.59;5055938;28;20376;-76
2021/04/24 05:49:12;;;;;;;;;;;;;;;1.63;100.00;100200.25;5055886;28;20086;-76
2021/04/24 05:51:39;;;;;;;;;;;;;;;1.71;100.00;100199.38;5055386;28;19925;-77
2021/04/24 05:54:05;;;;;;;;;;;;;;;1.82;100.00;100198.59;5049956;28;19931;-77
2021/04/24 05:56:32;;;;;;;;;;;;;;;2.12;100.00;100195.72;5054993;28;19925;-77
2021/04/24 05:59:00;;;;;;;;;;;;;;;2.17;100.00;100198.25;5055542;28;20240;-76
2021/04/24 06:01:26;;;;;;;;;;;;;;;2.24;100.00;100204.84;5055423;28;19925;-77
2021/04/24 06:03:54;;;;;;;;;;;;;;;2.35;100.00;100205.22;5077079;28;19925;-77
2021/04/24 06:06:21;;;;;;;;;;;;;;;2.34;100.00;100209.91;5081795;28;20289;-77
2021/04/24 06:08:48;;;;;;;;;;;;;;;2.38;100.00;100204.53;5053328;28;20291;-77
2021/04/24 06:11:14;;;;;;;;;;;;;;;2.49;100.00;100194.63;5054853;28;19928;-77
2021/04/24 06:13:41;;;;;;;;;;;;;;;2.59;100.00;100206.03;5055065;28;19960;-77
2021/04/24 06:16:12;;;;;;;;;;;;;;;2.65;100.00;100212.94;5053757;28;20345;-77
2021/04/24 06:18:38;;;;;;;;;;;;;;;2.68;100.00;100203.97;5054852;28;19932;-77
2021/04/24 06:21:08;;;;;;;;;;;;;;;2.87;100.00;100206.97;5051506;28;19925;-77
2021/04/24 06:23:35;;;;;;;;;;;;;;;3.02;100.00;100211.00;5054868;28;19991;-77
2021/04/24 06:26:05;;;;;;;;;;;;;;;3.05;100.00;100208.34;5043623;28;19949;-77
2021/04/24 06:28:31;;;;;;;;;;;;;;;3.27;100.00;100212.59;5054834;28;19925;-77
2021/04/24 06:30:58;;;;;;;;;;;;;;;3.43;100.00;100219.00;5054545;28;20008;-77
2021/04/24 06:33:24;;;;;;;;;;;;;;;3.56;100.00;100209.50;5064315;28;19929;-77
2021/04/24 06:39:57;;;;;;;;;;;;;;;4.01;100.00;100212.03;5053298;28;19924;-77
2021/04/24 06:42:24;;;;;;;;;;;;;;;4.02;100.00;100203.38;5087100;28;19925;-77
2021/04/24 06:44:50;;;;;;;;;;;;;;;4.18;100.00;100214.47;5053818;28;20327;-77
2021/04/24 06:47:17;;;;;;;;;;;;;;;4.43;100.00;100207.63;5054923;28;20268;-76
2021/04/24 06:49:44;;;;;;;;;;;;;;;4.81;100.00;100211.44;5053486;28;20023;-76
2021/04/24 06:52:10;;;;;;;;;;;;;;;5.02;100.00;100205.59;5054574;28;19925;-76
2021/04/24 06:54:37;;;;;;;;;;;;;;;5.22;100.00;100212.81;5054390;28;20365;-76
2021/04/24 06:57:04;;;;;;;;;;;;;;;5.43;100.00;100216.06;5054814;28;19935;-76
2021/04/24 06:59:31;;;;;;;;;;;;;;;5.52;100.00;100217.47;5054672;28;20375;-76
2021/04/24 07:01:58;;;;;;;;;;;;;;;5.63;100.00;100224.03;5054270;28;20018;-76
2021/04/24 07:04:24;;;;;;;;;;;;;;;5.62;100.00;100224.41;5054534;28;19998;-76
2021/04/24 07:06:51;;;;;;;;;;;;;;;5.63;100.00;100216.91;5053289;28;20487;-76
2021/04/24 07:09:17;;;;;;;;;;;;;;;5.79;100.00;100226.75;5054209;28;20015;-75
2021/04/24 07:11:44;;;;;;;;;;;;;;;6.10;100.00;100223.09;5054285;28;19932;-76
2021/04/24 07:14:10;;;;;;;;;;;;;;;6.91;100.00;100223.41;5057046;28;20067;-76
2021/04/24 07:16:37;;;;;;;;;;;;;;;7.20;100.00;100230.25;5054649;28;19932;-76
2021/04/24 07:19:04;;;;;;;;;;;;;;;7.26;100.00;100223.19;5053162;28;19932;-77
2021/04/24 07:21:31;;;;;;;;;;;;;;;7.86;100.00;100227.63;5064877;28;20015;-77
2021/04/24 07:23:58;;;;;;;;;;;;;;;8.72;100.00;100228.28;5053964;28;19994;-79
2021/04/24 07:26:25;;;;;;;;;;;;;;;9.87;100.00;100216.38;5054050;28;19928;-79
2021/04/24 07:28:51;;;;;;;;;;;;;;;10.12;100.00;100211.72;5054072;28;20574;-78
2021/04/24 07:31:20;;;;;;;;;;;;;;;10.03;100.00;100208.47;5052795;28;20272;-79
2021/04/24 07:33:49;;;;;;;;;;;;;;;9.76;100.00;100209.91;5052232;28;19925;-79
2021/04/24 07:36:17;;;;;;;;;;;;;;;9.76;100.00;100219.09;5053510;28;20028;-79
2021/04/24 07:38:43;;;;;;;;;;;;;;;9.72;100.00;100211.91;5053616;28;20440;-79
2021/04/24 07:41:10;;;;;;;;;;;;;;;10.00;100.00;100209.25;5046972;28;20019;-78
2021/04/24 07:43:37;;;;;;;;;;;;;;;9.92;100.00;100204.84;5053398;28;20384;-79
2021/04/24 07:46:03;;;;;;;;;;;;;;;10.05;100.00;100206.09;5053369;28;19933;-79
2021/04/24 07:48:30;;;;;;;;;;;;;;;10.15;100.00;100208.13;5086146;28;20002;-78
2021/04/24 07:50:56;;;;;;;;;;;;;;;10.17;100.00;100214.13;5053653;28;19928;-78
2021/04/24 07:53:23;;;;;;;;;;;;;;;10.21;100.00;100210.16;5053147;28;19929;-77
2021/04/24 07:55:50;;;;;;;;;;;;;;;10.16;100.00;100212.56;5042421;28;20006;-77
2021/04/24 07:58:16;;;;;;;;;;;;;;;10.03;100.00;100202.88;5053059;28;19929;-78
2021/04/24 08:00:44;;;;;;;;;;;;;;;10.01;100.00;100206.06;5047330;28;19925;-79
2021/04/24 08:03:10;;;;;;;;;;;;;;;10.02;100.00;100209.66;5047776;28;20574;-78
2021/04/24 08:05:37;;;;;;;;;;;;;;;10.13;100.00;100207.75;5041264;28;20637;-79
2021/04/24 08:08:05;;;;;;;;;;;;;;;10.34;100.00;100191.88;5044313;28;20420;-79
2021/04/24 08:10:31;;;;;;;;;;;;;;;10.59;100.00;100197.50;5049365;28;20011;-79
2021/04/24 08:12:59;;;;;;;;;;;;;;;10.71;100.00;100195.13;5056997;28;19936;-79
2021/04/24 08:15:28;;;;;;;;;;;;;;;10.92;100.00;100205.50;5046947;28;20015;-79
2021/04/24 08:17:55;;;;;;;;;;;;;;;10.92;100.00;100195.13;5048176;28;19928;-79
2021/04/24 08:20:23;;;;;;;;;;;;;;;11.05;100.00;100203.94;5048957;28;20022;-79
2021/04/24 08:22:49;;;;;;;;;;;;;;;11.26;100.00;100209.53;5046348;28;20006;-79
2021/04/24 08:25:16;;;;;;;;;;;;;;;11.27;100.00;100211.13;5048687;28;19925;-79
2021/04/24 08:27:43;;;;;;;;;;;;;;;11.12;100.00;100205.94;5048800;28;19925;-79
2021/04/24 08:30:11;;;;;;;;;;;;;;;11.02;100.00;100198.34;5048204;28;20433;-79
2021/04/24 08:32:38;;;;;;;;;;;;;;;11.43;100.00;100197.53;5048996;28;20378;-79
2021/04/24 08:35:06;;;;;;;;;;;;;;;11.66;100.00;100206.28;5038456;28;19925;-79
2021/04/24 08:37:34;;;;;;;;;;;;;;;11.68;100.00;100201.09;5044523;28;19925;-79
2021/04/24 08:40:01;;;;;;;;;;;;;;;11.63;100.00;100195.88;5047672;28;19925;-80
2021/04/24 08:42:27;;;;;;;;;;;;;;;11.95;100.00;100202.19;5047512;28;19924;-81
2021/04/24 08:44:54;;;;;;;;;;;;;;;12.36;100.00;100199.63;5043676;28;20652;-80
2021/04/24 08:47:21;;;;;;;;;;;;;;;12.23;100.00;100193.69;5048928;28;19929;-79
2021/04/24 08:49:50;;;;;;;;;;;;;;;11.88;100.00;100207.84;5068098;28;19929;-79
2021/04/24 08:52:18;;;;;;;;;;;;;;;11.83;100.00;100204.66;5048833;28;19932;-79
2021/04/24 08:54:45;;;;;;;;;;;;;;;11.67;100.00;100204.28;5047440;28;19929;-79
2021/04/24 08:57:12;;;;;;;;;;;;;;;11.45;100.00;100203.50;5049383;28;20508;-79
2021/04/24 08:59:39;;;;;;;;;;;;;;;11.40;100.00;100195.53;5048779;28;19925;-76
2021/04/24 09:02:05;;;;;;;;;;;;;;;11.61;100.00;100191.88;5081638;28;19929;-75
2021/04/24 09:04:32;;;;;;;;;;;;;;;11.55;100.00;100197.09;5047915;28;19935;-80
2021/04/24 09:06:59;;;;;;;;;;;;;;;11.80;100.00;100197.06;5049320;28;19932;-81
2021/04/24 09:09:27;;;;;;;;;;;;;;;11.64;100.00;100203.09;5039243;28;20396;-74
2021/04/24 09:12:01;;;;;;;;;;;;;;;11.66;100.00;100199.91;5046631;28;19925;-76
2021/04/24 09:14:28;;;;;;;;;;;;;;;11.85;100.00;100211.44;5051673;28;19968;-75
2021/04/24 09:16:55;;;;;;;;;;;;;;;11.92;100.00;100207.84;5054386;28;20386;-74
2021/04/24 09:19:30;;;;;;;;;;;;;;;11.96;100.00;100201.03;5056170;28;20011;-75
2021/04/24 09:22:13;;;;;;;;;;;;;;;12.14;100.00;100204.53;5088647;28;19924;-75
2021/04/24 09:24:40;;;;;;;;;;;;;;;12.22;100.00;100206.09;5056579;28;19947;-75
2021/04/24 09:27:08;;;;;;;;;;;;;;;12.31;100.00;100198.03;5056338;28;19929;-76
2021/04/24 09:29:46;;;;;;;;;;;;;;;12.27;100.00;100202.88;5056441;28;19932;-76
2021/04/24 09:32:13;;;;;;;;;;;;;;;12.10;100.00;100200.94;5087920;28;20257;-76
2021/04/24 09:34:41;;;;;;;;;;;;;;;12.14;100.00;100192.53;5087846;28;19933;-76
2021/04/24 09:37:21;;;;;;;;;;;;;;;12.18;100.00;100194.13;5056129;28;20368;-76
2021/04/24 09:39:51;;;;;;;;;;;;;;;12.53;100.00;100199.53;5056470;28;20078;-76
2021/04/24 09:42:33;;;;;;;;;;;;;;;12.63;100.00;100186.66;5055570;28;20261;-76
2021/04/24 09:45:01;;;;;;;;;;;;;;;12.87;100.00;100191.31;5056246;28;19925;-76
2021/04/24 09:47:44;;;;;;;;;;;;;;;12.46;100.00;100193.16;5055642;28;19924;-76
2021/04/24 09:50:11;;;;;;;;;;;;;;;12.55;100.00;100199.94;5056063;28;19924;-74
2021/04/24 09:52:37;;;;;;;;;;;;;;;12.65;100.00;100201.84;5055815;28;19931;-74
2021/04/24 09:55:04;;;;;;;;;;;;;;;12.60;100.00;100202.28;5056003;28;19932;-74
2021/04/24 09:57:34;;;;;;;;;;;;;;;12.68;100.00;100195.44;5055873;28;20291;-74
2021/04/24 10:00:04;;;;;;;;;;;;;;;12.68;100.00;100195.44;5055883;28;19931;-75
2021/04/24 10:02:41;;;;;;;;;;;;;;;12.98;100.00;100196.81;5055621;28;20372;-75
2021/04/24 10:05:08;;;;;;;;;;;;;;;12.96;100.00;100196.44;5054735;28;20410;-75
2021/04/24 10:07:38;;;;;;;;;;;;;;;12.78;100.00;100194.56;5055822;28;19925;-75
2021/04/24 10:10:07;;;;;;;;;;;;;;;12.73;100.00;100197.00;5070833;28;19932;-75
2021/04/24 10:12:35;;;;;;;;;;;;;;;12.81;100.00;100204.16;5055597;28;19925;-75
2021/04/24 10:15:02;;;;;;;;;;;;;;;12.64;100.00;100202.28;5055663;28;19966;-75
2021/04/24 10:17:29;;;;;;;;;;;;;;;12.84;100.00;100196.94;5055114;28;19925;-75
2021/04/24 10:19:55;;;;;;;;;;;;;;;12.74;100.00;100201.41;5055210;28;19971;-75
2021/04/24 10:22:24;;;;;;;;;;;;;;;12.70;100.00;100209.84;5055396;28;20372;-75
2021/04/24 10:24:52;;;;;;;;;;;;;;;12.77;100.00;100204.19;5055354;28;19932;-75
2021/04/24 10:27:19;;;;;;;;;;;;;;;12.63;100.00;100207.06;5054734;28;19929;-75
2021/04/24 10:29:46;;;;;;;;;;;;;;;12.39;100.00;100210.00;5054876;28;19935;-75
2021/04/24 10:32:13;;;;;;;;;;;;;;;12.71;100.00;100217.03;5054507;28;19931;-74
2021/04/24 10:34:40;;;;;;;;;;;;;;;12.74;100.00;100221.03;5054719;28;20455;-75
2021/04/24 10:37:08;;;;;;;;;;;;;;;12.70;100.00;100218.25;5054521;28;19932;-75
2021/04/24 10:39:36;;;;;;;;;;;;;;;12.84;100.00;100216.56;5054408;28;20031;-75
2021/04/24 10:42:07;;;;;;;;;;;;;;;12.75;100.00;100212.19;5069858;28;19936;-75
2021/04/24 10:44:53;;;;;;;;;;;;;;;12.96;100.00;100219.69;5049250;28;19926;-75
2021/04/24 10:47:41;;;;;;;;;;;;;;;12.93;100.00;100211.28;5054624;28;19928;-76
2021/04/24 10:50:16;;;;;;;;;;;;;;;13.19;100.00;100210.72;5054290;28;19925;-76
2021/04/24 10:52:44;;;;;;;;;;;;;;;13.08;100.00;100205.19;5054109;28;20395;-75
2021/04/24 10:55:14;;;;;;;;;;;;;;;13.18;100.00;100203.50;5053488;28;19925;-76
2021/04/24 10:57:45;;;;;;;;;;;;;;;13.18;100.00;100200.69;5053765;28;19932;-75
2021/04/24 11:00:13;;;;;;;;;;;;;;;13.29;100.00;100199.41;5041976;28;19932;-75
2021/04/24 11:02:53;;;;;;;;;;;;;;;13.26;100.00;100207.84;5053974;28;19924;-75
2021/04/24 11:05:19;;;;;;;;;;;;;;;13.41;100.00;100203.69;5053113;28;19932;-74
2021/04/24 11:07:47;;;;;;;;;;;;;;;13.42;100.00;100202.50;5054158;28;20328;-75
2021/04/24 11:10:14;;;;;;;;;;;;;;;13.45;100.00;100198.84;5054252;28;19971;-75
2021/04/24 11:12:41;;;;;;;;;;;;;;;13.30;100.00;100203.00;5052782;28;19925;-75
2021/04/24 11:15:08;;;;;;;;;;;;;;;13.07;100.00;100197.97;5053492;28;20067;-75
2021/04/24 11:17:36;;;;;;;;;;;;;;;13.48;100.00;100193.19;5053295;28;19932;-75
2021/04/24 11:20:04;;;;;;;;;;;;;;;13.30;100.00;100198.19;5054015;28;20150;-75
2021/04/24 11:22:31;;;;;;;;;;;;;;;13.49;100.00;100205.22;5052425;28;19925;-74
2021/04/24 11:25:15;;;;;;;;;;;;;;;13.40;100.00;100202.09;5053569;28;19932;-74
2021/04/24 11:28:00;;;;;;;;;;;;;;;13.47;100.00;100202.03;5075892;28;20282;-75
2021/04/24 11:30:46;;;;;;;;;;;;;;;13.17;100.00;100199.91;5052718;28;19931;-76
2021/04/24 11:33:31;;;;;;;;;;;;;;;12.71;100.00;100188.19;5069236;28;20015;-75
2021/04/24 11:38:59;;;;;;;;;;;;;;;13.06;100.00;100196.38;5052484;28;19943;-74
2021/04/24 11:41:30;;;;;;;;;;;;;;;12.81;100.00;100189.34;5053817;28;20055;-73
2021/04/24 11:43:57;;;;;;;;;;;;;;;13.21;100.00;100180.25;5053293;28;19931;-73
2021/04/24 11:46:36;;;;;;;;;;;;;;;13.54;100.00;100182.31;5053565;28;19932;-73
2021/04/24 11:49:12;;;;;;;;;;;;;;;13.45;100.00;100182.78;5054046;28;19947;-73
2021/04/24 11:51:41;;;;;;;;;;;;;;;13.74;100.00;100183.28;5053721;28;19931;-73
2021/04/24 11:54:09;;;;;;;;;;;;;;;13.89;100.00;100185.53;5053536;28;19925;-74
2021/04/24 11:56:37;;;;;;;;;;;;;;;13.68;100.00;100182.97;5085949;28;20299;-74
2021/04/24 11:59:06;;;;;;;;;;;;;;;13.48;100.00;100175.56;5053447;28;19928;-74
2021/04/24 12:01:36;;;;;;;;;;;;;;;13.63;100.00;100182.63;5053314;28;19925;-74
2021/04/24 12:04:04;;;;;;;;;;;;;;;13.53;100.00;100177.91;5053482;28;20357;-74
2021/04/24 12:06:48;;;;;;;;;;;;;;;13.28;100.00;100168.94;5052388;28;19925;-74
2021/04/24 12:09:15;;;;;;;;;;;;;;;13.36;100.00;100165.63;5053194;28;20040;-73
2021/04/24 12:11:53;;;;;;;;;;;;;;;13.63;100.00;100168.59;5056066;28;20014;-74
2021/04/24 12:14:20;;;;;;;;;;;;;;;13.84;100.00;100165.53;5087005;28;20276;-73
2021/04/24 12:16:47;;;;;;;;;;;;;;;13.66;100.00;100160.09;5052949;28;19924;-74
2021/04/24 12:19:24;;;;;;;;;;;;;;;13.47;100.00;100157.09;5052992;28;20031;-74
2021/04/24 12:22:05;;;;;;;;;;;;;;;13.56;100.00;100155.41;5052652;28;20399;-74
2021/04/24 12:24:33;;;;;;;;;;;;;;;13.97;100.00;100142.09;5053432;28;19925;-73
2021/04/24 12:27:20;;;;;;;;;;;;;;;13.73;100.00;100148.81;5052856;28;19925;-73
2021/04/24 12:29:51;;;;;;;;;;;;;;;13.76;100.00;100142.34;5053047;28;19967;-73
2021/04/24 12:32:19;;;;;;;;;;;;;;;14.11;100.00;100146.72;5041870;28;20383;-74
2021/04/24 12:34:46;;;;;;;;;;;;;;;14.20;100.00;100145.00;5047998;28;19932;-74
2021/04/24 12:37:17;;;;;;;;;;;;;;;14.17;100.00;100145.03;5048176;28;20011;-74
2021/04/24 12:39:45;;;;;;;;;;;;;;;13.90;100.00;100132.94;5049615;28;20078;-73
2021/04/24 12:42:12;;;;;;;;;;;;;;;13.96;100.00;100137.69;5048535;28;19925;-73
2021/04/24 12:44:40;;;;;;;;;;;;;;;13.74;100.00;100135.53;5049469;28;20273;-73